Sao Francisco, Brazil
Current Conditions -  °F | °C
As of 6:00 AM on Thursday 29 Jan 2015 (Local Time) from SBMK Reporting Station
Clear Clear  
Wind Chill: 68°   Ceiling: Unl
Heat Index: 68°   Visibility: 6mi
Dew Point: 64°   Wind: 3mph
Humidity: 88%   Direction: 10°N
Pressure: 30"   Gusts: NA
Location:  15.95°S, 44.86°W
Report Text: SBMK 290800Z 01003KT 340V040 CAVOK 20/18 Q1016
Loading
Personal Weather Stations






























Interactive Weather Map New forecast layout! Learn more

10-Day Weather Forecast

Advertisements
Track Severe Weather on mobile